Amelia, Virginia
Current Conditions -  °F | °C
As of 9:35 PM on Saturday 22 Nov 2014 (Local Time) from KW81 Reporting Station
Clear Clear  
Wind Chill: 32°   Ceiling: Unl
Heat Index: 32°   Visibility: 10mi
Dew Point: 19°   Wind: 0mph
Humidity: 58%   Direction: NA
Pressure: 30.34"   Gusts: NA
Location:  37.3498°N, 77.9661°W
Report Text: KW81 230235Z AUTO 00000KT 10SM CLR 00/M07 A3034 RMK AO1 T00021071
Loading
Personal Weather Stations






























Interactive Weather Map New forecast layout! Learn more

10-Day Weather Forecast

Advertisements
Track Severe Weather on mobile